Time;durP1;ratioP1;P1;durP2;ratioP2;P2;SDS_P1;SDS_P2;PMS_P1;PMS_P2;Temp;Humidity;BMP_temperature;BMP_pressure;BME280_temperature;BME280_humidity;BME280_pressure;Samples;Min_cycle;Max_cycle;Signal;HPM_P1;HPM_P2
2022/01/22 00:00:53;;;;;;;11.00;6.17;;;;;;;-144.19;100.00;78682.03;6182877;23;20461;-89
2022/01/22 00:03:20;;;;;;;13.98;7.28;;;;;;;-144.19;100.00;78676.13;6181364;23;20236;-88
2022/01/22 00:05:48;;;;;;;11.45;7.05;;;;;;;-144.19;100.00;78705.66;6181490;23;20334;-89
2022/01/22 00:08:15;;;;;;;13.70;7.20;;;;;;;-144.19;100.00;78693.84;6181329;23;20023;-88
2022/01/22 00:10:44;;;;;;;;;;;;;;;-144.19;100.00;78701.72;6182001;23;20017;-89
2022/01/22 00:15:43;;;;;;;10.43;6.78;;;;;;;-144.19;100.00;78676.13;6183223;23;20021;-88
2022/01/22 00:18:10;;;;;;;12.93;6.40;;;;;;;-144.19;100.00;78684.00;6181593;23;20021;-89
2022/01/22 00:20:37;;;;;;;12.32;6.90;;;;;;;-144.19;100.00;78674.16;6181512;23;20021;-88
2022/01/22 00:23:04;;;;;;;11.93;6.05;;;;;;;-144.19;100.00;78684.00;6181376;23;20100;-88
2022/01/22 00:25:31;;;;;;;14.10;6.90;;;;;;;-144.19;100.00;78670.22;6181866;23;20021;-88
2022/01/22 00:27:58;;;;;;;13.18;6.93;;;;;;;-144.19;100.00;78678.09;6183056;23;20024;-88
2022/01/22 00:30:26;;;;;;;10.50;6.95;;;;;;;-144.19;100.00;78674.16;6181599;23;20021;-88
2022/01/22 00:32:53;;;;;;;14.88;7.85;;;;;;;-144.19;100.00;78666.28;6180392;23;20487;-89
2022/01/22 00:35:21;;;;;;;11.55;6.82;;;;;;;-144.19;100.00;78672.19;6181524;23;20029;-88
2022/01/22 00:37:50;;;;;;;10.80;6.82;;;;;;;-144.19;100.00;78652.50;6182516;23;20023;-88
2022/01/22 00:40:17;;;;;;;14.10;7.40;;;;;;;-144.19;100.00;78674.16;6181289;23;20021;-88
2022/01/22 00:42:46;;;;;;;12.25;7.35;;;;;;;-144.19;100.00;78666.28;6182679;23;20022;-88
2022/01/22 00:45:13;;;;;;;11.23;6.43;;;;;;;-144.19;100.00;78670.22;6181329;23;20025;-88
2022/01/22 00:47:39;;;;;;;10.77;7.18;;;;;;;-144.19;100.00;78660.38;6181533;23;20338;-88
2022/01/22 00:50:11;;;;;;;11.60;7.05;;;;;;;-144.19;100.00;78654.47;6181062;23;20031;-88
2022/01/22 00:52:42;;;;;;;11.48;7.28;;;;;;;-144.19;100.00;78658.41;6182710;23;20017;-88
2022/01/22 00:55:10;;;;;;;10.15;6.97;;;;;;;-144.19;100.00;78654.47;6180764;23;20025;-88
2022/01/22 00:57:36;;;;;;;13.38;7.78;;;;;;;-144.19;100.00;78654.47;6181547;23;20092;-88
2022/01/22 01:00:07;;;;;;;12.13;7.97;;;;;;;-144.19;100.00;78648.56;6180954;23;20025;-89
2022/01/22 01:02:35;;;;;;;12.27;7.43;;;;;;;-144.19;100.00;78642.66;6180660;23;20013;-89
2022/01/22 01:05:06;;;;;;;12.07;7.28;;;;;;;-144.19;100.00;78634.78;6181121;23;20061;-88
2022/01/22 01:07:32;;;;;;;11.75;7.03;;;;;;;-144.19;100.00;78654.47;6182431;23;20017;-88
2022/01/22 01:09:59;;;;;;;11.25;7.28;;;;;;;-144.19;100.00;78642.66;6182327;23;20676;-89
2022/01/22 01:12:26;;;;;;;13.23;7.68;;;;;;;-144.19;100.00;78642.66;6180595;23;20104;-88
2022/01/22 01:15:07;;;;;;;12.05;7.07;;;;;;;-144.19;100.00;78656.44;6182753;23;20028;-88
2022/01/22 01:17:57;;;;;;;13.02;6.95;;;;;;;-144.19;100.00;78642.66;6181407;23;20044;-89
2022/01/22 01:34:17;;;;;;;11.68;7.22;;;;;;;-144.19;100.00;78656.44;6181306;23;20022;-89
2022/01/22 01:36:45;;;;;;;12.15;6.88;;;;;;;-144.19;100.00;78644.63;6182475;23;20017;-92
2022/01/22 01:39:17;;;;;;;12.13;7.50;;;;;;;-144.19;100.00;78630.84;6182498;23;20021;-89
2022/01/22 01:41:56;;;;;;;11.25;6.97;;;;;;;-144.19;100.00;78630.84;6181322;23;20025;-88
2022/01/22 01:44:24;;;;;;;11.65;8.07;;;;;;;-144.19;100.00;78626.91;6181070;23;20017;-88
2022/01/22 01:46:56;;;;;;;12.15;7.30;;;;;;;-144.19;100.00;78638.72;6182882;23;20031;-87
2022/01/22 01:49:22;;;;;;;12.95;7.32;;;;;;;-144.19;100.00;78650.53;6182385;23;20450;-88
2022/01/22 01:51:49;;;;;;;11.02;7.22;;;;;;;-144.19;100.00;78648.56;6182764;23;20031;-88
2022/01/22 01:59:41;;;;;;;11.38;7.13;;;;;;;-144.19;100.00;78621.00;6155457;23;20056;-89
2022/01/22 02:02:08;;;;;;;10.75;6.30;;;;;;;-144.19;100.00;78626.91;6153932;23;20021;-89
2022/01/22 02:04:35;;;;;;;10.93;6.57;;;;;;;-144.19;100.00;78619.03;6153384;23;20025;-89
2022/01/22 02:07:02;;;;;;;11.55;6.85;;;;;;;-144.19;100.00;78615.09;6153697;23;20029;-90
2022/01/22 02:09:29;;;;;;;8.20;5.82;;;;;;;-144.19;100.00;78632.81;6153730;23;20029;-90
2022/01/22 02:12:02;;;;;;;10.55;6.90;;;;;;;-144.19;100.00;78630.84;6154673;23;20036;-91
2022/01/22 02:25:32;;;;;;;9.82;5.60;;;;;;;-144.19;100.00;78642.66;6155184;23;20027;-89
2022/01/22 02:28:03;;;;;;;11.05;6.35;;;;;;;-144.19;100.00;78622.97;6154203;23;20032;-90
2022/01/22 02:30:32;;;;;;;10.18;5.53;;;;;;;-144.19;100.00;78622.97;6154270;23;20096;-90
2022/01/22 02:33:28;;;;;;;10.50;5.65;;;;;;;-144.19;100.00;78622.97;6153713;23;20021;-90
2022/01/22 02:39:13;;;;;;;10.80;5.63;;;;;;;-144.19;100.00;78626.91;6064720;23;20026;-90
2022/01/22 02:41:46;;;;;;;7.20;5.00;;;;;;;-144.19;100.00;78638.72;6141968;23;20113;-88
2022/01/22 02:44:24;;;;;;;8.60;5.55;;;;;;;-144.19;100.00;78636.75;6153481;23;20098;-90
2022/01/22 02:46:51;;;;;;;5.35;4.00;;;;;;;-144.19;100.00;78622.97;6155437;23;20025;-90
2022/01/22 02:49:18;;;;;;;6.40;4.22;;;;;;;-144.19;100.00;78630.84;6154030;23;20021;-89
2022/01/22 02:51:44;;;;;;;6.75;4.70;;;;;;;-144.19;100.00;78642.66;6153197;23;20024;-88
2022/01/22 02:54:11;;;;;;;6.63;4.10;;;;;;;-144.19;100.00;78634.78;6153471;23;20028;-90
2022/01/22 02:56:37;;;;;;;5.50;4.03;;;;;;;-144.19;100.00;78640.69;6153167;23;20374;-90
2022/01/22 02:59:03;;;;;;;6.45;3.67;;;;;;;-144.19;100.00;78624.94;6153600;23;20253;-90
2022/01/22 03:01:30;;;;;;;5.25;2.97;;;;;;;-144.19;100.00;78642.66;6154159;23;20218;-90
2022/01/22 03:03:56;;;;;;;4.97;3.03;;;;;;;-144.19;100.00;78634.78;6152871;23;20024;-90
2022/01/22 03:06:23;;;;;;;4.83;2.90;;;;;;;-144.19;100.00;78619.03;6154839;23;20025;-90
2022/01/22 03:08:49;;;;;;;4.07;2.80;;;;;;;-144.19;100.00;78626.91;6152855;23;20025;-90
2022/01/22 03:11:19;;;;;;;4.97;2.17;;;;;;;-144.19;100.00;78626.91;6154134;23;20567;-90
2022/01/22 03:14:30;;;;;;;2.97;2.40;;;;;;;-144.19;100.00;78619.03;6153062;23;20352;-90
2022/01/22 03:17:12;;;;;;;4.15;2.10;;;;;;;-144.19;100.00;78621.00;6155005;23;20100;-89
2022/01/22 03:27:28;;;;;;;4.13;2.20;;;;;;;-144.19;100.00;78628.88;6154741;23;20335;-87
2022/01/22 03:29:56;;;;;;;3.05;1.85;;;;;;;-144.19;100.00;78615.09;6152858;23;20021;-89
2022/01/22 03:32:25;;;;;;;3.47;1.85;;;;;;;-144.19;100.00;78619.03;6153125;23;20466;-87
2022/01/22 03:35:10;;;;;;;4.32;1.83;;;;;;;-144.19;100.00;78622.97;6152313;23;20024;-90
2022/01/22 03:37:38;;;;;;;3.22;1.70;;;;;;;-144.19;100.00;78607.19;6153445;23;20022;-89
2022/01/22 03:40:06;;;;;;;4.57;1.63;;;;;;;-144.19;100.00;78611.13;6153000;23;20031;-89
2022/01/22 03:42:34;;;;;;;4.55;1.77;;;;;;;-144.19;100.00;78621.00;6152169;23;20017;-90
2022/01/22 03:45:03;;;;;;;3.58;1.90;;;;;;;-144.19;100.00;78622.97;6153409;23;20018;-90
2022/01/22 03:47:29;;;;;;;2.60;1.80;;;;;;;-144.19;100.00;78611.13;6152688;23;20021;-89
2022/01/22 03:49:56;;;;;;;2.90;1.73;;;;;;;-144.19;100.00;78622.97;6153836;23;20021;-89
2022/01/22 03:52:22;;;;;;;3.63;1.87;;;;;;;-144.19;100.00;78630.84;6152839;23;20021;-89
2022/01/22 03:54:49;;;;;;;3.28;1.92;;;;;;;-144.19;100.00;78630.84;6152523;23;20028;-90
2022/01/22 03:57:15;;;;;;;3.07;1.70;;;;;;;-144.19;100.00;78632.81;6154743;23;20022;-89
2022/01/22 03:59:43;;;;;;;4.00;1.85;;;;;;;-144.19;100.00;78622.97;6153029;23;20021;-90
2022/01/22 04:02:41;;;;;;;2.45;1.40;;;;;;;-144.19;100.00;78619.03;6152292;23;20549;-89
2022/01/22 04:05:01;;;;;;;2.45;1.55;;;;;;;-144.19;100.00;78622.97;6154335;23;20018;-90
2022/01/22 04:10:14;;;;;;;3.33;1.40;;;;;;;-144.19;100.00;78630.84;6154459;23;20017;-90
2022/01/22 04:12:53;;;;;;;;;;;;;;;-144.19;100.00;78626.91;6152320;23;20353;-89
2022/01/22 04:15:23;;;;;;;3.30;1.40;;;;;;;-144.19;100.00;78609.16;6152717;23;20264;-89
2022/01/22 04:26:02;;;;;;;3.17;1.63;;;;;;;-144.19;100.00;78626.91;6154058;23;20024;-87
2022/01/22 04:28:28;;;;;;;3.53;1.67;;;;;;;-144.19;100.00;78622.97;6152848;23;20026;-90
2022/01/22 04:30:55;;;;;;;3.57;1.60;;;;;;;-144.19;100.00;78617.06;6152898;23;20022;-91
2022/01/22 04:33:21;;;;;;;4.32;2.03;;;;;;;-144.19;100.00;78626.91;6152551;23;20297;-88
2022/01/22 04:35:48;;;;;;;4.23;1.93;;;;;;;-144.19;100.00;78624.94;6152599;23;20041;-90
2022/01/22 04:38:14;;;;;;;3.53;1.90;;;;;;;-144.19;100.00;78626.91;6152759;23;20257;-90
2022/01/22 04:40:40;;;;;;;4.97;1.97;;;;;;;-144.19;100.00;78630.84;6153182;23;20336;-89
2022/01/22 04:43:08;;;;;;;4.38;1.90;;;;;;;-144.19;100.00;78642.66;6152878;23;20113;-90
2022/01/22 04:55:48;;;;;;;4.57;1.80;;;;;;;-144.19;100.00;78642.66;6154767;23;20489;-91
2022/01/22 04:58:15;;;;;;;3.38;1.50;;;;;;;-144.19;100.00;78650.53;6151905;23;20024;-89
2022/01/22 05:00:45;;;;;;;2.43;1.20;;;;;;;-144.19;100.00;78615.09;6152822;23;20022;-90
2022/01/22 05:03:11;;;;;;;2.50;1.30;;;;;;;-144.19;100.00;78634.78;6151929;23;20068;-89
2022/01/22 05:05:38;;;;;;;2.88;1.20;;;;;;;-144.19;100.00;78642.66;6154522;23;20521;-92
2022/01/22 05:08:04;;;;;;;2.85;1.30;;;;;;;-144.19;100.00;78630.84;6152352;23;20017;-90
2022/01/22 05:10:31;;;;;;;3.13;1.63;;;;;;;-144.19;100.00;78628.88;6152508;23;20361;-89
2022/01/22 05:12:57;;;;;;;3.97;1.50;;;;;;;-144.19;100.00;78638.72;6152885;23;20358;-90
2022/01/22 05:15:24;;;;;;;2.63;1.47;;;;;;;-144.19;100.00;78638.72;6154994;23;20265;-91
2022/01/22 05:17:50;;;;;;;2.72;1.48;;;;;;;-144.19;100.00;78634.78;6152497;23;20031;-89
2022/01/22 05:20:25;;;;;;;4.50;1.83;;;;;;;-144.19;100.00;78634.78;6151964;23;20022;-88
2022/01/22 05:25:32;;;;;;;3.53;1.63;;;;;;;-144.19;100.00;78626.91;6154716;23;20021;-93
2022/01/22 05:28:47;;;;;;;5.07;1.67;;;;;;;-144.19;100.00;78642.66;6154359;23;20040;-91
2022/01/22 05:30:59;;;;;;;4.93;1.67;;;;;;;-144.19;100.00;78654.47;6154778;23;20024;-91
2022/01/22 05:38:44;;;;;;;4.57;1.88;;;;;;;-144.19;100.00;78666.28;6155645;23;20017;-89
2022/01/22 05:41:11;;;;;;;8.80;2.25;;;;;;;-144.19;100.00;78656.44;6154830;23;20031;-90
2022/01/22 05:43:38;;;;;;;5.70;1.85;;;;;;;-144.19;100.00;78652.50;6153300;23;20023;-88
2022/01/22 05:46:05;;;;;;;5.55;2.50;;;;;;;-144.19;100.00;78658.41;6154215;23;20021;-91
2022/01/22 05:48:31;;;;;;;8.02;2.45;;;;;;;-144.19;100.00;78678.09;6153706;23;20021;-90
2022/01/22 05:51:01;;;;;;;5.10;2.10;;;;;;;-144.19;100.00;78682.03;6154338;23;20053;-90
2022/01/22 05:53:40;;;;;;;4.45;1.90;;;;;;;-144.19;100.00;78678.09;6153489;23;20241;-88
2022/01/22 06:01:20;;;;;;;4.47;2.08;;;;;;;-144.19;100.00;78695.81;6155733;23;20021;-91
2022/01/22 06:04:08;;;;;;;;;;;;;;;-144.19;100.00;78703.72;6157567;23;20022;-90
2022/01/22 06:06:51;;;;;;;4.10;2.20;;;;;;;-144.19;100.00;78699.75;6135621;23;20265;-90
2022/01/22 06:09:18;;;;;;;3.53;2.40;;;;;;;-144.19;100.00;78713.56;6155861;23;20081;-90
2022/01/22 06:14:20;;;;;;;2.90;1.60;;;;;;;-144.19;100.00;78705.66;6155892;23;20434;-88
2022/01/22 06:16:47;;;;;;;;;;;;;;;-144.19;100.00;78697.78;6155659;23;20021;-90
2022/01/22 06:19:14;;;;;;;4.10;1.63;;;;;;;-144.19;100.00;78713.56;6155848;23;19917;-89
2022/01/22 06:21:40;;;;;;;3.10;1.33;;;;;;;-144.19;100.00;78705.66;6155132;23;20106;-91
2022/01/22 06:24:07;;;;;;;4.37;2.13;;;;;;;-144.19;100.00;78701.72;6154766;23;20092;-89
2022/01/22 06:26:35;;;;;;;3.33;2.00;;;;;;;-144.19;100.00;78689.91;6154606;23;20017;-87
2022/01/22 06:29:03;;;;;;;3.15;1.88;;;;;;;-144.19;100.00;78701.72;6155181;23;20017;-88
2022/01/22 06:31:30;;;;;;;3.42;1.85;;;;;;;-144.19;100.00;78717.50;6155103;23;20478;-89
2022/01/22 06:33:58;;;;;;;3.70;2.00;;;;;;;-144.19;100.00;78715.53;6154561;23;20458;-89
2022/01/22 06:36:26;;;;;;;4.95;2.13;;;;;;;-144.19;100.00;78713.56;6154556;23;20021;-89
2022/01/22 06:38:58;;;;;;;3.80;1.40;;;;;;;-144.19;100.00;78705.66;6155310;23;20080;-90
2022/01/22 06:44:16;;;;;;;4.30;2.00;;;;;;;-144.19;100.00;78729.31;6155674;23;20056;-88
2022/01/22 06:46:45;;;;;;;3.03;1.90;;;;;;;-144.19;100.00;78737.19;6155182;23;20096;-88
2022/01/22 06:49:12;;;;;;;5.10;2.20;;;;;;;-144.19;100.00;78737.19;6155232;23;20021;-90
2022/01/22 06:51:39;;;;;;;4.78;1.80;;;;;;;-144.19;100.00;78737.19;6155273;23;20025;-88
2022/01/22 06:54:06;;;;;;;;;;;;;;;-144.19;100.00;78741.13;6154600;23;20021;-88
2022/01/22 06:56:33;;;;;;;4.18;2.08;;;;;;;-144.19;100.00;78737.19;6154429;23;19916;-91
2022/01/22 06:59:00;;;;;;;4.38;2.45;;;;;;;-144.19;100.00;78733.25;6155047;23;20021;-89
2022/01/22 07:01:27;;;;;;;3.95;2.28;;;;;;;-144.19;100.00;78729.31;6155392;23;20109;-90
2022/01/22 07:03:54;;;;;;;;;;;;;;;-144.19;100.00;78729.31;6155051;23;20049;-91
2022/01/22 07:06:21;;;;;;;6.68;2.63;;;;;;;-144.19;100.00;78721.44;6156403;23;19920;-89
2022/01/22 07:08:48;;;;;;;3.35;1.88;;;;;;;-144.19;100.00;78735.22;6156200;23;20021;-90
2022/01/22 07:11:15;;;;;;;4.68;2.22;;;;;;;-144.19;100.00;78743.09;6155719;23;20043;-91
2022/01/22 07:13:41;;;;;;;3.88;2.47;;;;;;;-144.19;100.00;78737.19;6156000;23;20109;-90
2022/01/22 07:16:08;;;;;;;4.70;2.40;;;;;;;-144.19;100.00;78739.16;6155414;23;20073;-90
2022/01/22 07:18:35;;;;;;;3.63;2.38;;;;;;;-144.19;100.00;78745.06;6155895;23;20044;-90
2022/01/22 07:21:09;;;;;;;4.15;2.20;;;;;;;-144.19;100.00;78729.31;6155467;23;20407;-89
2022/01/22 07:26:04;;;;;;;5.80;2.77;;;;;;;-144.19;100.00;78745.06;6157840;23;20018;-89
2022/01/22 07:28:30;;;;;;;4.22;1.92;;;;;;;-144.19;100.00;78760.81;6155635;23;20097;-91
2022/01/22 07:30:59;;;;;;;4.13;2.07;;;;;;;-144.19;100.00;78752.94;6157018;23;20067;-92
2022/01/22 07:33:27;;;;;;;4.05;2.28;;;;;;;-144.19;100.00;78739.16;6157236;23;20025;-91
2022/01/22 07:35:54;;;;;;;5.15;2.60;;;;;;;-144.19;100.00;78735.22;6155385;23;20039;-89
2022/01/22 07:38:21;;;;;;;4.97;2.83;;;;;;;-144.19;100.00;78725.38;6155434;23;20082;-89
2022/01/22 07:40:48;;;;;;;6.47;3.05;;;;;;;-144.19;100.00;78745.06;6155260;23;20040;-90
2022/01/22 07:43:16;;;;;;;4.50;2.83;;;;;;;-144.19;100.00;78737.19;6155855;23;20100;-90
2022/01/22 07:45:43;;;;;;;5.05;3.03;;;;;;;-144.19;100.00;78737.19;6155643;23;20288;-91
2022/01/22 07:48:09;;;;;;;6.57;3.00;;;;;;;-144.19;100.00;78737.19;6154428;23;20027;-90
2022/01/22 07:50:36;;;;;;;4.97;2.58;;;;;;;-144.19;100.00;78752.94;6154515;23;20017;-88
2022/01/22 07:53:02;;;;;;;6.00;2.92;;;;;;;-144.19;100.00;78733.25;6153650;23;20021;-90
2022/01/22 07:55:33;;;;;;;5.77;2.40;;;;;;;-144.19;100.00;78752.94;6170483;23;20028;-89
2022/01/22 07:58:11;;;;;;;5.03;2.80;;;;;;;-144.19;100.00;78749.00;6181025;23;20077;-89
2022/01/22 08:00:39;;;;;;;6.80;2.97;;;;;;;-144.19;100.00;78739.16;6182416;23;20032;-88
2022/01/22 08:03:08;;;;;;;5.82;3.17;;;;;;;-144.19;100.00;78750.97;6181260;23;20081;-88
2022/01/22 08:05:36;;;;;;;6.85;3.10;;;;;;;-144.19;100.00;78739.16;6181350;23;20465;-87
2022/01/22 08:08:41;;;;;;;4.47;2.83;;;;;;;-144.19;100.00;78754.91;6181133;23;20048;-89
2022/01/22 08:11:15;;;;;;;7.78;3.42;;;;;;;-144.19;100.00;78729.31;6177773;23;20033;-89
2022/01/22 08:13:55;;;;;;;5.28;2.35;;;;;;;-144.19;100.00;78729.31;6181178;23;20025;-89
2022/01/22 08:19:46;;;;;;;6.45;3.33;;;;;;;-144.19;100.00;78741.13;6194413;23;20027;-90
2022/01/22 08:22:16;;;;;;;6.65;2.92;;;;;;;-144.19;100.00;78741.13;6180873;23;20301;-88
2022/01/22 08:24:44;;;;;;;5.30;2.90;;;;;;;-144.19;100.00;78725.38;6180549;23;20029;-89
2022/01/22 08:27:31;;;;;;;5.65;3.22;;;;;;;-144.19;100.00;78737.19;6182007;23;20080;-89
2022/01/22 08:29:59;;;;;;;4.30;2.65;;;;;;;-144.19;100.00;78739.16;6207318;23;20061;-87
2022/01/22 08:38:07;;;;;;;;;;;;;;;;;;;;;
2022/01/22 08:41:11;;;;;;;5.03;2.75;;;;;;;-144.19;100.00;78745.06;6206746;23;20063;-88
2022/01/22 08:43:39;;;;;;;5.75;2.78;;;;;;;-144.19;100.00;78741.13;6181694;23;20029;-88
2022/01/22 08:46:09;;;;;;;6.45;2.60;;;;;;;-144.19;100.00;78737.19;6205733;23;20016;-89
2022/01/22 08:56:30;;;;;;;6.30;2.58;;;;;;;-144.19;100.00;78707.66;5908327;24;20062;-87
2022/01/22 08:59:15;;;;;;;4.85;2.63;;;;;;;-144.19;100.00;78737.19;5922030;24;20641;-88
2022/01/22 09:02:08;;;;;;;6.05;3.17;;;;;;;-144.19;100.00;78693.84;5949903;23;20023;-87
2022/01/22 09:04:52;;;;;;;6.00;2.85;;;;;;;-144.19;100.00;78725.38;6035281;23;20038;-89
2022/01/22 09:07:22;;;;;;;6.32;3.10;;;;;;;-144.19;100.00;78717.50;6100068;23;20477;-87
2022/01/22 09:09:50;;;;;;;6.43;2.42;;;;;;;-144.19;100.00;78727.34;6178934;23;20031;-88
2022/01/22 09:12:22;;;;;;;4.53;2.53;;;;;;;-144.19;100.00;78713.56;6204398;23;20021;-87
2022/01/22 09:14:55;;;;;;;6.55;2.40;;;;;;;-144.19;100.00;78717.50;6194891;23;20021;-88
2022/01/22 09:17:23;;;;;;;3.53;2.15;;;;;;;-144.19;100.00;78713.56;6175513;23;20021;-88
2022/01/22 09:19:57;;;;;;;3.17;1.73;;;;;;;-144.19;100.00;78705.66;6179787;23;20029;-87
2022/01/22 09:22:28;;;;;;;4.30;2.10;;;;;;;-144.19;100.00;78721.44;6204397;23;20031;-87
2022/01/22 09:25:04;;;;;;;3.88;1.92;;;;;;;-144.19;100.00;78729.31;6177961;23;20093;-89
2022/01/22 09:27:32;;;;;;;4.65;1.95;;;;;;;-144.19;100.00;78721.44;6178771;23;20020;-89
2022/01/22 09:30:12;;;;;;;;;;;;;;;;;;;;;
2022/01/22 09:32:48;;;;;;;3.15;1.70;;;;;;;-144.19;100.00;78721.44;6205250;23;20101;-88
2022/01/22 09:35:16;;;;;;;4.07;2.33;;;;;;;-144.19;100.00;78697.78;6179621;23;20071;-89
2022/01/22 09:38:01;;;;;;;4.55;1.92;;;;;;;-144.19;100.00;78693.84;6183549;23;20021;-89
2022/01/22 09:40:43;;;;;;;3.38;2.03;;;;;;;-144.19;100.00;78725.38;6206333;23;20056;-89
2022/01/22 09:43:24;;;;;;;3.38;1.80;;;;;;;-144.19;100.00;78693.84;6174005;23;20025;-88
2022/01/22 09:45:55;;;;;;;5.57;2.20;;;;;;;-144.19;100.00;78680.06;6181426;23;20028;-87
2022/01/22 09:48:30;;;;;;;1.95;1.13;;;;;;;-144.19;100.00;78721.44;6181397;23;20023;-88
2022/01/22 09:50:57;;;;;;;3.92;1.30;;;;;;;-144.19;100.00;78685.97;6178835;23;20025;-85
2022/01/22 09:53:25;;;;;;;2.28;1.20;;;;;;;-144.19;100.00;78723.41;6179304;23;20521;-88
2022/01/22 09:55:55;;;;;;;5.70;2.00;;;;;;;-144.19;100.00;78709.63;6181113;23;20024;-88
2022/01/22 09:58:22;;;;;;;3.10;1.52;;;;;;;-144.19;100.00;78697.78;6181213;23;20009;-88
2022/01/22 10:00:49;;;;;;;1.42;0.93;;;;;;;-144.19;100.00;78709.63;6206007;23;20040;-87
2022/01/22 10:03:42;;;;;;;3.05;1.40;;;;;;;-144.19;100.00;78689.91;6197013;23;20025;-87
2022/01/22 10:06:21;;;;;;;2.30;1.30;;;;;;;-144.19;100.00;78715.53;6179244;23;20021;-87
2022/01/22 10:09:14;;;;;;;1.77;1.02;;;;;;;-144.19;100.00;78709.63;6180608;23;20020;-88
2022/01/22 10:11:42;;;;;;;1.55;0.93;;;;;;;-144.19;100.00;78713.56;6180419;23;20021;-89
2022/01/22 10:14:23;;;;;;;1.73;1.10;;;;;;;-144.19;100.00;78709.63;6179113;23;20556;-88
2022/01/22 10:16:50;;;;;;;;;;;;;;;-144.19;100.00;78715.53;6183055;23;20009;-88
2022/01/22 10:19:19;;;;;;;2.28;1.42;;;;;;;-144.19;100.00;78664.31;6184612;23;19959;-88
2022/01/22 10:21:55;;;;;;;3.08;1.33;;;;;;;-144.19;100.00;78678.09;6211192;23;20017;-90
2022/01/22 10:24:46;;;;;;;1.95;1.33;;;;;;;-144.19;100.00;78691.88;6183653;23;20025;-91
2022/01/22 10:27:34;;;;;;;1.83;1.30;;;;;;;-144.19;100.00;78693.84;6182083;23;20021;-88
2022/01/22 10:30:22;;;;;;;3.22;1.55;;;;;;;-144.19;100.00;78687.94;6181127;23;20027;-89
2022/01/22 10:33:01;;;;;;;2.70;1.10;;;;;;;-144.19;100.00;78666.28;6206803;23;20032;-88
2022/01/22 10:35:32;;;;;;;2.15;1.35;;;;;;;-144.19;100.00;78693.84;6180871;23;20017;-88
2022/01/22 10:38:18;;;;;;;4.45;1.50;;;;;;;-144.19;100.00;78642.66;6184725;23;20021;-89
2022/01/22 10:40:52;;;;;;;3.38;1.55;;;;;;;-144.19;100.00;78666.28;6181581;23;20021;-88
2022/01/22 10:43:31;;;;;;;2.83;1.20;;;;;;;-144.19;100.00;78662.34;6181708;23;20077;-88
2022/01/22 10:46:20;;;;;;;2.22;1.20;;;;;;;-144.19;100.00;78672.19;6179128;23;20024;-88
2022/01/22 10:48:56;;;;;;;3.17;1.42;;;;;;;-144.19;100.00;78684.00;6172948;23;20021;-87
2022/01/22 10:51:26;;;;;;;3.58;1.20;;;;;;;-144.19;100.00;78674.16;6175888;23;20035;-87
2022/01/22 10:53:55;;;;;;;1.98;1.10;;;;;;;-144.19;100.00;78662.34;6181247;23;20029;-87
2022/01/22 10:56:26;;;;;;;2.60;0.93;;;;;;;-144.19;100.00;78680.06;6183123;23;20052;-87
2022/01/22 10:59:07;;;;;;;2.63;1.27;;;;;;;-144.19;100.00;78634.78;6187069;23;20020;-88
2022/01/22 11:01:48;;;;;;;1.80;1.10;;;;;;;-144.19;100.00;78646.59;6184065;23;20476;-88
2022/01/22 11:04:21;;;;;;;1.70;1.02;;;;;;;-144.19;100.00;78652.50;6181827;23;20103;-87
2022/01/22 11:06:55;;;;;;;1.38;0.98;;;;;;;-144.19;100.00;78668.25;6182701;23;20023;-86
2022/01/22 11:09:42;;;;;;;1.40;1.00;;;;;;;-144.19;100.00;78685.97;6181721;23;20025;-87
2022/01/22 11:12:09;;;;;;;2.97;1.20;;;;;;;-144.19;100.00;78666.28;6182501;23;20028;-88
2022/01/22 11:14:37;;;;;;;2.00;1.38;;;;;;;-144.19;100.00;78626.91;6183762;23;20121;-87
2022/01/22 11:17:06;;;;;;;1.40;1.00;;;;;;;-144.19;100.00;78619.03;6182520;23;20027;-87
2022/01/22 11:19:34;;;;;;;3.13;1.33;;;;;;;-144.19;100.00;78563.88;6182252;23;20032;-87
2022/01/22 11:22:04;;;;;;;1.50;1.10;;;;;;;-144.19;100.00;78615.09;6182002;23;20476;-88
2022/01/22 11:24:35;;;;;;;1.58;0.93;;;;;;;-144.19;100.00;78632.81;6182842;23;20021;-86
2022/01/22 11:27:04;;;;;;;1.48;0.65;;;;;;;-144.19;100.00;78648.56;6185076;23;20025;-86
2022/01/22 11:29:51;;;;;;;1.88;0.73;;;;;;;-144.19;100.00;78622.97;6208043;23;20061;-88
2022/01/22 11:32:24;;;;;;;1.50;0.80;;;;;;;-144.19;100.00;78634.78;6187140;23;20021;-88
2022/01/22 11:34:55;;;;;;;0.88;0.60;;;;;;;-144.19;100.00;78654.47;6183366;23;20025;-86
2022/01/22 11:37:33;;;;;;;1.55;0.52;;;;;;;-144.19;100.00;78654.47;6183384;23;20018;-86
2022/01/22 11:40:17;;;;;;;0.85;0.35;;;;;;;-144.19;100.00;78689.91;6182968;23;20028;-86
2022/01/22 11:43:03;;;;;;;0.95;0.40;;;;;;;-144.19;100.00;78685.97;6181821;23;20021;-86
2022/01/22 11:45:36;;;;;;;1.77;0.60;;;;;;;-144.19;100.00;78705.66;6182964;23;20564;-86
2022/01/22 11:48:17;;;;;;;1.52;0.88;;;;;;;-144.19;100.00;78723.41;6182667;23;20055;-87
2022/01/22 11:50:47;;;;;;;0.88;0.70;;;;;;;-144.19;100.00;78711.59;6185164;23;20546;-89
2022/01/22 11:53:37;;;;;;;1.10;0.70;;;;;;;-144.19;100.00;78733.25;6183371;23;20021;-88
2022/01/22 11:56:09;;;;;;;2.45;1.20;;;;;;;-144.19;100.00;78695.81;6183927;23;20017;-85
2022/01/22 11:59:02;;;;;;;2.38;0.95;;;;;;;-144.19;100.00;78725.38;6158600;23;20021;-89
2022/01/22 12:01:40;;;;;;;2.22;0.70;;;;;;;-144.19;100.00;78703.72;6159150;23;20361;-89
2022/01/22 12:04:09;;;;;;;1.40;0.70;;;;;;;-144.19;100.00;78697.78;6159062;23;20025;-87
2022/01/22 12:07:00;;;;;;;1.80;0.70;;;;;;;-144.19;100.00;78664.31;6159142;23;20071;-87
2022/01/22 12:09:33;;;;;;;2.47;0.80;;;;;;;-144.19;100.00;78680.06;6156926;23;20021;-88
2022/01/22 12:15:26;;;;;;;0.90;0.70;;;;;;;-144.19;100.00;78664.31;6181619;23;20025;-87
2022/01/22 12:18:06;;;;;;;1.52;0.93;;;;;;;-144.19;100.00;78689.91;6184155;23;20025;-87
2022/01/22 12:23:05;;;;;;;3.00;1.10;;;;;;;-144.19;100.00;78699.75;6184800;23;20029;-86
2022/01/22 12:25:31;;;;;;;5.15;1.30;;;;;;;-144.19;100.00;78674.16;6183979;23;20023;-84
2022/01/22 12:27:58;;;;;;;1.73;1.15;;;;;;;-144.19;100.00;78684.00;6184388;23;20479;-86
2022/01/22 12:30:44;;;;;;;2.33;1.00;;;;;;;-144.19;100.00;78674.16;6157845;23;20021;-86
2022/01/22 12:33:13;;;;;;;2.78;1.55;;;;;;;-144.19;100.00;78680.06;6184783;23;20023;-86
2022/01/22 12:35:41;;;;;;;3.17;1.80;;;;;;;-144.19;100.00;78689.91;6157947;23;20059;-86
2022/01/22 12:38:25;;;;;;;3.25;1.85;;;;;;;-144.19;100.00;78693.84;6157821;23;20031;-85
2022/01/22 12:40:58;;;;;;;3.15;1.40;;;;;;;-144.19;100.00;78684.00;6158368;23;20461;-88
2022/01/22 12:43:31;;;;;;;4.47;2.30;;;;;;;-144.19;100.00;78685.97;6185011;23;20024;-87
2022/01/22 12:46:03;;;;;;;2.90;1.90;;;;;;;-144.19;100.00;78658.41;6157833;23;20021;-86
2022/01/22 12:48:32;;;;;;;2.88;1.88;;;;;;;-144.19;100.00;78622.97;6184372;23;20095;-87
2022/01/22 12:51:07;;;;;;;2.75;1.83;;;;;;;-144.19;100.00;78654.47;6160084;23;20528;-86
2022/01/22 12:53:35;;;;;;;3.90;1.70;;;;;;;-144.19;100.00;78685.97;6158226;23;20017;-86
2022/01/22 12:56:14;;;;;;;2.72;1.20;;;;;;;-144.19;100.00;78664.31;6184511;23;20017;-86
2022/01/22 12:58:41;;;;;;;2.78;1.50;;;;;;;-144.19;100.00;78674.16;6158116;23;20642;-86
2022/01/22 13:01:09;;;;;;;2.42;1.52;;;;;;;-144.19;100.00;78650.53;6184332;23;20052;-87
2022/01/22 13:03:46;;;;;;;2.45;1.00;;;;;;;-144.19;100.00;78670.22;6156948;23;20084;-86
2022/01/22 13:06:12;;;;;;;1.35;1.02;;;;;;;-144.19;100.00;78701.72;6183437;23;20021;-86
2022/01/22 13:08:40;;;;;;;1.80;0.70;;;;;;;-144.19;100.00;78701.72;6157028;23;20208;-85
2022/01/22 13:11:08;;;;;;;2.35;0.90;;;;;;;-144.19;100.00;78680.06;6168652;23;20076;-87
2022/01/22 13:13:38;;;;;;;0.90;0.60;;;;;;;-144.19;100.00;78699.75;6187990;23;20021;-86
2022/01/22 13:16:09;;;;;;;0.52;0.40;;;;;;;-144.19;100.00;78711.59;6185936;23;20017;-87
2022/01/22 13:18:46;;;;;;;2.08;0.70;;;;;;;-144.19;100.00;78705.66;6161001;23;20031;-86
2022/01/22 13:21:15;;;;;;;0.95;0.55;;;;;;;-144.19;100.00;78691.88;6185756;23;20353;-86